sensor_id;sensor_type;location;lat;lon;timestamp;P1;durP1;ratioP1;P2;durP2;ratioP2
57891;SDS011;43708;48.828;9.166;2023-03-14T00:02:02;0.50;;;0.50;;
57891;SDS011;43708;48.828;9.166;2023-03-14T00:04:27;0.95;;;0.30;;
57891;SDS011;43708;48.828;9.166;2023-03-14T00:06:53;2.08;;;0.50;;
57891;SDS011;43708;48.828;9.166;2023-03-14T00:09:18;0.73;;;0.50;;
57891;SDS011;43708;48.828;9.166;2023-03-14T00:11:44;0.75;;;0.55;;
57891;SDS011;43708;48.828;9.166;2023-03-14T00:14:10;0.70;;;0.50;;
57891;SDS011;43708;48.828;9.166;2023-03-14T00:16:36;0.70;;;0.50;;
57891;SDS011;43708;48.828;9.166;2023-03-14T00:19:02;1.45;;;0.30;;
57891;SDS011;43708;48.828;9.166;2023-03-14T00:21:28;0.60;;;0.50;;
57891;SDS011;43708;48.828;9.166;2023-03-14T00:23:53;0.40;;;0.40;;
57891;SDS011;43708;48.828;9.166;2023-03-14T00:26:20;0.50;;;0.47;;
57891;SDS011;43708;48.828;9.166;2023-03-14T00:28:46;0.50;;;0.32;;
57891;SDS011;43708;48.828;9.166;2023-03-14T00:31:15;0.57;;;0.38;;
57891;SDS011;43708;48.828;9.166;2023-03-14T00:33:41;0.88;;;0.65;;
57891;SDS011;43708;48.828;9.166;2023-03-14T00:36:17;0.68;;;0.50;;
57891;SDS011;43708;48.828;9.166;2023-03-14T00:38:44;0.40;;;0.40;;
57891;SDS011;43708;48.828;9.166;2023-03-14T00:41:12;0.60;;;0.40;;
57891;SDS011;43708;48.828;9.166;2023-03-14T00:43:39;1.02;;;0.43;;
57891;SDS011;43708;48.828;9.166;2023-03-14T00:46:05;0.43;;;0.30;;
57891;SDS011;43708;48.828;9.166;2023-03-14T00:48:31;0.40;;;0.25;;
57891;SDS011;43708;48.828;9.166;2023-03-14T00:50:57;0.40;;;0.30;;
57891;SDS011;43708;48.828;9.166;2023-03-14T00:53:23;0.60;;;0.35;;
57891;SDS011;43708;48.828;9.166;2023-03-14T00:55:49;1.08;;;0.30;;
57891;SDS011;43708;48.828;9.166;2023-03-14T00:58:17;0.30;;;0.25;;
57891;SDS011;43708;48.828;9.166;2023-03-14T01:00:43;0.30;;;0.20;;
57891;SDS011;43708;48.828;9.166;2023-03-14T01:03:10;0.60;;;0.30;;
57891;SDS011;43708;48.828;9.166;2023-03-14T01:05:36;0.43;;;0.40;;
57891;SDS011;43708;48.828;9.166;2023-03-14T01:08:01;0.40;;;0.40;;
57891;SDS011;43708;48.828;9.166;2023-03-14T01:10:28;0.40;;;0.40;;
57891;SDS011;43708;48.828;9.166;2023-03-14T01:12:53;0.30;;;0.22;;
57891;SDS011;43708;48.828;9.166;2023-03-14T01:15:19;0.70;;;0.40;;
57891;SDS011;43708;48.828;9.166;2023-03-14T01:17:45;0.60;;;0.40;;
57891;SDS011;43708;48.828;9.166;2023-03-14T01:20:11;0.52;;;0.32;;
57891;SDS011;43708;48.828;9.166;2023-03-14T01:22:39;0.50;;;0.38;;
57891;SDS011;43708;48.828;9.166;2023-03-14T01:25:06;0.50;;;0.38;;
57891;SDS011;43708;48.828;9.166;2023-03-14T01:27:32;0.40;;;0.30;;
57891;SDS011;43708;48.828;9.166;2023-03-14T01:29:58;0.60;;;0.38;;
57891;SDS011;43708;48.828;9.166;2023-03-14T01:32:24;0.38;;;0.38;;
57891;SDS011;43708;48.828;9.166;2023-03-14T01:34:50;0.55;;;0.40;;
57891;SDS011;43708;48.828;9.166;2023-03-14T01:37:16;0.40;;;0.30;;
57891;SDS011;43708;48.828;9.166;2023-03-14T01:39:42;0.50;;;0.40;;
57891;SDS011;43708;48.828;9.166;2023-03-14T01:42:07;0.40;;;0.40;;
57891;SDS011;43708;48.828;9.166;2023-03-14T01:47:24;0.85;;;0.40;;
57891;SDS011;43708;48.828;9.166;2023-03-14T01:49:51;0.70;;;0.60;;
57891;SDS011;43708;48.828;9.166;2023-03-14T01:52:28;0.40;;;0.38;;
57891;SDS011;43708;48.828;9.166;2023-03-14T01:55:20;0.40;;;0.40;;
57891;SDS011;43708;48.828;9.166;2023-03-14T01:57:50;0.70;;;0.60;;
57891;SDS011;43708;48.828;9.166;2023-03-14T02:00:22;0.40;;;0.40;;
57891;SDS011;43708;48.828;9.166;2023-03-14T02:02:51;0.80;;;0.50;;
57891;SDS011;43708;48.828;9.166;2023-03-14T02:05:25;0.60;;;0.30;;
57891;SDS011;43708;48.828;9.166;2023-03-14T02:07:58;0.80;;;0.43;;
57891;SDS011;43708;48.828;9.166;2023-03-14T02:10:27;0.47;;;0.40;;
57891;SDS011;43708;48.828;9.166;2023-03-14T02:12:56;0.50;;;0.30;;
57891;SDS011;43708;48.828;9.166;2023-03-14T02:15:26;0.50;;;0.40;;
57891;SDS011;43708;48.828;9.166;2023-03-14T02:17:52;0.40;;;0.40;;
57891;SDS011;43708;48.828;9.166;2023-03-14T02:23:12;0.40;;;0.30;;
57891;SDS011;43708;48.828;9.166;2023-03-14T02:25:43;0.35;;;0.28;;
57891;SDS011;43708;48.828;9.166;2023-03-14T02:28:16;0.40;;;0.32;;
57891;SDS011;43708;48.828;9.166;2023-03-14T02:30:41;0.30;;;0.22;;
57891;SDS011;43708;48.828;9.166;2023-03-14T02:33:09;0.73;;;0.38;;
57891;SDS011;43708;48.828;9.166;2023-03-14T02:38:22;0.52;;;0.40;;
57891;SDS011;43708;48.828;9.166;2023-03-14T02:41:09;0.32;;;0.30;;
57891;SDS011;43708;48.828;9.166;2023-03-14T02:43:34;0.40;;;0.40;;
57891;SDS011;43708;48.828;9.166;2023-03-14T02:46:00;0.30;;;0.20;;
57891;SDS011;43708;48.828;9.166;2023-03-14T02:48:31;0.30;;;0.28;;
57891;SDS011;43708;48.828;9.166;2023-03-14T02:51:01;0.50;;;0.22;;
57891;SDS011;43708;48.828;9.166;2023-03-14T02:53:31;0.30;;;0.30;;
57891;SDS011;43708;48.828;9.166;2023-03-14T02:55:59;0.30;;;0.20;;
57891;SDS011;43708;48.828;9.166;2023-03-14T02:58:25;0.50;;;0.30;;
57891;SDS011;43708;48.828;9.166;2023-03-14T03:00:51;0.30;;;0.20;;
57891;SDS011;43708;48.828;9.166;2023-03-14T03:03:17;0.30;;;0.20;;
57891;SDS011;43708;48.828;9.166;2023-03-14T03:05:43;0.30;;;0.30;;
57891;SDS011;43708;48.828;9.166;2023-03-14T03:08:12;0.30;;;0.20;;
57891;SDS011;43708;48.828;9.166;2023-03-14T03:10:37;0.47;;;0.30;;
57891;SDS011;43708;48.828;9.166;2023-03-14T03:13:03;0.65;;;0.30;;
57891;SDS011;43708;48.828;9.166;2023-03-14T03:15:29;0.40;;;0.30;;
57891;SDS011;43708;48.828;9.166;2023-03-14T03:17:54;1.35;;;0.30;;
57891;SDS011;43708;48.828;9.166;2023-03-14T03:20:20;0.47;;;0.30;;
57891;SDS011;43708;48.828;9.166;2023-03-14T03:22:46;0.38;;;0.30;;
57891;SDS011;43708;48.828;9.166;2023-03-14T03:25:11;0.47;;;0.30;;
57891;SDS011;43708;48.828;9.166;2023-03-14T03:27:37;0.40;;;0.30;;
57891;SDS011;43708;48.828;9.166;2023-03-14T03:30:04;0.40;;;0.28;;
57891;SDS011;43708;48.828;9.166;2023-03-14T03:32:30;0.30;;;0.22;;
57891;SDS011;43708;48.828;9.166;2023-03-14T03:34:56;0.30;;;0.25;;
57891;SDS011;43708;48.828;9.166;2023-03-14T03:37:22;0.30;;;0.20;;
57891;SDS011;43708;48.828;9.166;2023-03-14T03:39:49;0.35;;;0.30;;
57891;SDS011;43708;48.828;9.166;2023-03-14T03:42:16;0.40;;;0.20;;
57891;SDS011;43708;48.828;9.166;2023-03-14T03:44:42;0.38;;;0.30;;
57891;SDS011;43708;48.828;9.166;2023-03-14T03:47:08;0.40;;;0.30;;
57891;SDS011;43708;48.828;9.166;2023-03-14T03:49:33;0.30;;;0.20;;
57891;SDS011;43708;48.828;9.166;2023-03-14T03:51:59;0.30;;;0.20;;
57891;SDS011;43708;48.828;9.166;2023-03-14T03:54:25;0.40;;;0.30;;
57891;SDS011;43708;48.828;9.166;2023-03-14T03:56:54;0.35;;;0.30;;
57891;SDS011;43708;48.828;9.166;2023-03-14T03:59:20;0.60;;;0.47;;
57891;SDS011;43708;48.828;9.166;2023-03-14T04:01:45;0.30;;;0.20;;
57891;SDS011;43708;48.828;9.166;2023-03-14T04:04:11;0.50;;;0.30;;
57891;SDS011;43708;48.828;9.166;2023-03-14T04:06:37;0.30;;;0.30;;
57891;SDS011;43708;48.828;9.166;2023-03-14T04:09:03;0.30;;;0.30;;
57891;SDS011;43708;48.828;9.166;2023-03-14T04:11:29;0.40;;;0.40;;
57891;SDS011;43708;48.828;9.166;2023-03-14T04:13:55;0.50;;;0.40;;
57891;SDS011;43708;48.828;9.166;2023-03-14T04:16:21;0.32;;;0.28;;
57891;SDS011;43708;48.828;9.166;2023-03-14T04:18:48;0.35;;;0.30;;
57891;SDS011;43708;48.828;9.166;2023-03-14T04:21:14;0.40;;;0.30;;
57891;SDS011;43708;48.828;9.166;2023-03-14T04:23:40;0.30;;;0.20;;
57891;SDS011;43708;48.828;9.166;2023-03-14T04:26:06;0.40;;;0.30;;
57891;SDS011;43708;48.828;9.166;2023-03-14T04:28:31;0.40;;;0.38;;
57891;SDS011;43708;48.828;9.166;2023-03-14T04:30:57;0.40;;;0.40;;
57891;SDS011;43708;48.828;9.166;2023-03-14T04:33:23;0.60;;;0.15;;
57891;SDS011;43708;48.828;9.166;2023-03-14T04:35:49;0.40;;;0.30;;
57891;SDS011;43708;48.828;9.166;2023-03-14T04:38:19;0.30;;;0.20;;
57891;SDS011;43708;48.828;9.166;2023-03-14T04:40:45;0.43;;;0.20;;
57891;SDS011;43708;48.828;9.166;2023-03-14T04:43:11;0.30;;;0.22;;
57891;SDS011;43708;48.828;9.166;2023-03-14T04:45:37;0.30;;;0.10;;
57891;SDS011;43708;48.828;9.166;2023-03-14T04:48:06;0.30;;;0.20;;
57891;SDS011;43708;48.828;9.166;2023-03-14T04:50:31;0.30;;;0.30;;
57891;SDS011;43708;48.828;9.166;2023-03-14T04:52:57;0.40;;;0.30;;
57891;SDS011;43708;48.828;9.166;2023-03-14T04:55:22;0.73;;;0.20;;
57891;SDS011;43708;48.828;9.166;2023-03-14T04:57:48;0.32;;;0.22;;
57891;SDS011;43708;48.828;9.166;2023-03-14T05:00:14;0.40;;;0.22;;
57891;SDS011;43708;48.828;9.166;2023-03-14T05:02:42;0.57;;;0.30;;
57891;SDS011;43708;48.828;9.166;2023-03-14T05:05:08;0.45;;;0.30;;
57891;SDS011;43708;48.828;9.166;2023-03-14T05:07:34;0.43;;;0.30;;
57891;SDS011;43708;48.828;9.166;2023-03-14T05:09:59;0.50;;;0.30;;
57891;SDS011;43708;48.828;9.166;2023-03-14T05:12:25;0.68;;;0.40;;
57891;SDS011;43708;48.828;9.166;2023-03-14T05:14:50;0.40;;;0.28;;
57891;SDS011;43708;48.828;9.166;2023-03-14T05:17:16;0.30;;;0.30;;
57891;SDS011;43708;48.828;9.166;2023-03-14T05:19:42;0.30;;;0.20;;
57891;SDS011;43708;48.828;9.166;2023-03-14T05:22:08;0.30;;;0.22;;
57891;SDS011;43708;48.828;9.166;2023-03-14T05:24:34;0.30;;;0.30;;
57891;SDS011;43708;48.828;9.166;2023-03-14T05:27:00;0.30;;;0.20;;
57891;SDS011;43708;48.828;9.166;2023-03-14T05:29:26;0.30;;;0.20;;
57891;SDS011;43708;48.828;9.166;2023-03-14T05:31:51;0.30;;;0.20;;
57891;SDS011;43708;48.828;9.166;2023-03-14T05:34:17;0.30;;;0.20;;
57891;SDS011;43708;48.828;9.166;2023-03-14T05:36:45;0.40;;;0.20;;
57891;SDS011;43708;48.828;9.166;2023-03-14T05:39:11;0.63;;;0.30;;
57891;SDS011;43708;48.828;9.166;2023-03-14T05:41:37;0.30;;;0.10;;
57891;SDS011;43708;48.828;9.166;2023-03-14T05:44:02;0.30;;;0.30;;
57891;SDS011;43708;48.828;9.166;2023-03-14T05:46:28;0.30;;;0.20;;
57891;SDS011;43708;48.828;9.166;2023-03-14T05:48:55;0.50;;;0.20;;
57891;SDS011;43708;48.828;9.166;2023-03-14T05:51:24;0.30;;;0.20;;
57891;SDS011;43708;48.828;9.166;2023-03-14T05:53:50;0.40;;;0.30;;
57891;SDS011;43708;48.828;9.166;2023-03-14T05:56:16;0.30;;;0.30;;
57891;SDS011;43708;48.828;9.166;2023-03-14T05:58:41;0.55;;;0.30;;
57891;SDS011;43708;48.828;9.166;2023-03-14T06:01:07;0.40;;;0.30;;
57891;SDS011;43708;48.828;9.166;2023-03-14T06:03:33;0.40;;;0.22;;
57891;SDS011;43708;48.828;9.166;2023-03-14T06:05:59;0.50;;;0.30;;
57891;SDS011;43708;48.828;9.166;2023-03-14T06:08:24;0.40;;;0.13;;
57891;SDS011;43708;48.828;9.166;2023-03-14T06:10:50;0.40;;;0.20;;
57891;SDS011;43708;48.828;9.166;2023-03-14T06:13:17;0.60;;;0.20;;
57891;SDS011;43708;48.828;9.166;2023-03-14T06:15:43;0.30;;;0.20;;
57891;SDS011;43708;48.828;9.166;2023-03-14T06:18:08;0.30;;;0.30;;
57891;SDS011;43708;48.828;9.166;2023-03-14T06:20:37;0.40;;;0.22;;
57891;SDS011;43708;48.828;9.166;2023-03-14T06:23:12;0.55;;;0.40;;
57891;SDS011;43708;48.828;9.166;2023-03-14T06:25:37;0.30;;;0.22;;
57891;SDS011;43708;48.828;9.166;2023-03-14T06:28:03;1.02;;;0.28;;
57891;SDS011;43708;48.828;9.166;2023-03-14T06:30:29;0.50;;;0.30;;
57891;SDS011;43708;48.828;9.166;2023-03-14T06:32:54;0.30;;;0.20;;
57891;SDS011;43708;48.828;9.166;2023-03-14T06:35:20;0.30;;;0.30;;
57891;SDS011;43708;48.828;9.166;2023-03-14T06:37:47;0.55;;;0.30;;
57891;SDS011;43708;48.828;9.166;2023-03-14T06:40:12;0.30;;;0.15;;
57891;SDS011;43708;48.828;9.166;2023-03-14T06:42:42;0.85;;;0.45;;
57891;SDS011;43708;48.828;9.166;2023-03-14T06:45:08;0.30;;;0.20;;
57891;SDS011;43708;48.828;9.166;2023-03-14T06:47:34;0.82;;;0.30;;
57891;SDS011;43708;48.828;9.166;2023-03-14T06:50:00;0.32;;;0.20;;
57891;SDS011;43708;48.828;9.166;2023-03-14T06:52:26;0.50;;;0.20;;
57891;SDS011;43708;48.828;9.166;2023-03-14T06:54:51;0.30;;;0.20;;
57891;SDS011;43708;48.828;9.166;2023-03-14T06:57:17;0.77;;;0.20;;
57891;SDS011;43708;48.828;9.166;2023-03-14T06:59:42;0.50;;;0.30;;
57891;SDS011;43708;48.828;9.166;2023-03-14T07:02:10;0.30;;;0.22;;
57891;SDS011;43708;48.828;9.166;2023-03-14T07:04:37;0.40;;;0.30;;
57891;SDS011;43708;48.828;9.166;2023-03-14T07:07:03;0.68;;;0.60;;
57891;SDS011;43708;48.828;9.166;2023-03-14T07:09:29;1.30;;;1.20;;
57891;SDS011;43708;48.828;9.166;2023-03-14T07:11:54;1.52;;;0.95;;
57891;SDS011;43708;48.828;9.166;2023-03-14T07:14:20;0.65;;;0.65;;
57891;SDS011;43708;48.828;9.166;2023-03-14T07:16:46;1.50;;;0.73;;
57891;SDS011;43708;48.828;9.166;2023-03-14T07:19:11;0.85;;;0.60;;
57891;SDS011;43708;48.828;9.166;2023-03-14T07:21:37;1.58;;;0.70;;
57891;SDS011;43708;48.828;9.166;2023-03-14T07:24:02;1.15;;;0.50;;
57891;SDS011;43708;48.828;9.166;2023-03-14T07:26:28;0.80;;;0.57;;
57891;SDS011;43708;48.828;9.166;2023-03-14T07:28:56;2.03;;;0.45;;
57891;SDS011;43708;48.828;9.166;2023-03-14T07:31:22;1.52;;;0.70;;
57891;SDS011;43708;48.828;9.166;2023-03-14T07:33:48;0.60;;;0.38;;
57891;SDS011;43708;48.828;9.166;2023-03-14T07:36:14;1.75;;;0.40;;
57891;SDS011;43708;48.828;9.166;2023-03-14T07:38:39;0.60;;;0.40;;
57891;SDS011;43708;48.828;9.166;2023-03-14T07:41:08;1.27;;;0.40;;
57891;SDS011;43708;48.828;9.166;2023-03-14T07:43:34;1.20;;;0.60;;
57891;SDS011;43708;48.828;9.166;2023-03-14T07:46:01;1.70;;;0.65;;
57891;SDS011;43708;48.828;9.166;2023-03-14T07:48:27;0.43;;;0.43;;
57891;SDS011;43708;48.828;9.166;2023-03-14T07:51:10;0.90;;;0.73;;
57891;SDS011;43708;48.828;9.166;2023-03-14T07:53:35;2.38;;;0.73;;
57891;SDS011;43708;48.828;9.166;2023-03-14T07:56:01;0.98;;;0.57;;
57891;SDS011;43708;48.828;9.166;2023-03-14T07:58:27;2.95;;;1.00;;
57891;SDS011;43708;48.828;9.166;2023-03-14T08:00:57;2.08;;;1.27;;
57891;SDS011;43708;48.828;9.166;2023-03-14T08:03:24;2.53;;;1.35;;
57891;SDS011;43708;48.828;9.166;2023-03-14T08:05:50;2.15;;;1.00;;
57891;SDS011;43708;48.828;9.166;2023-03-14T08:08:16;5.65;;;1.52;;
57891;SDS011;43708;48.828;9.166;2023-03-14T08:10:45;2.47;;;1.67;;
57891;SDS011;43708;48.828;9.166;2023-03-14T08:13:11;4.93;;;1.52;;
57891;SDS011;43708;48.828;9.166;2023-03-14T08:15:37;1.92;;;1.40;;
57891;SDS011;43708;48.828;9.166;2023-03-14T08:18:03;2.33;;;1.90;;
57891;SDS011;43708;48.828;9.166;2023-03-14T08:20:30;3.33;;;1.65;;
57891;SDS011;43708;48.828;9.166;2023-03-14T08:22:56;2.00;;;1.40;;
57891;SDS011;43708;48.828;9.166;2023-03-14T08:25:22;2.78;;;1.50;;
57891;SDS011;43708;48.828;9.166;2023-03-14T08:27:48;3.58;;;1.90;;
57891;SDS011;43708;48.828;9.166;2023-03-14T08:30:14;3.30;;;1.67;;
57891;SDS011;43708;48.828;9.166;2023-03-14T08:32:43;2.30;;;1.40;;
57891;SDS011;43708;48.828;9.166;2023-03-14T08:35:09;3.53;;;1.98;;
57891;SDS011;43708;48.828;9.166;2023-03-14T08:37:35;3.22;;;1.80;;
57891;SDS011;43708;48.828;9.166;2023-03-14T08:40:01;2.60;;;1.55;;
57891;SDS011;43708;48.828;9.166;2023-03-14T08:42:32;1.80;;;1.40;;
57891;SDS011;43708;48.828;9.166;2023-03-14T08:45:01;3.30;;;1.58;;
57891;SDS011;43708;48.828;9.166;2023-03-14T08:47:26;3.63;;;1.65;;
57891;SDS011;43708;48.828;9.166;2023-03-14T08:49:52;3.53;;;2.03;;
57891;SDS011;43708;48.828;9.166;2023-03-14T08:52:18;8.13;;;7.32;;
57891;SDS011;43708;48.828;9.166;2023-03-14T08:54:44;11.52;;;10.43;;
57891;SDS011;43708;48.828;9.166;2023-03-14T08:57:09;13.98;;;12.68;;
57891;SDS011;43708;48.828;9.166;2023-03-14T08:59:35;15.40;;;13.82;;
57891;SDS011;43708;48.828;9.166;2023-03-14T09:02:03;14.85;;;13.40;;
57891;SDS011;43708;48.828;9.166;2023-03-14T09:04:32;18.20;;;16.40;;
57891;SDS011;43708;48.828;9.166;2023-03-14T09:06:58;25.92;;;23.48;;
57891;SDS011;43708;48.828;9.166;2023-03-14T09:09:25;15.13;;;13.68;;
57891;SDS011;43708;48.828;9.166;2023-03-14T09:11:55;16.73;;;15.15;;
57891;SDS011;43708;48.828;9.166;2023-03-14T09:14:21;18.42;;;16.70;;
57891;SDS011;43708;48.828;9.166;2023-03-14T09:16:48;17.23;;;15.63;;
57891;SDS011;43708;48.828;9.166;2023-03-14T09:19:15;16.05;;;14.52;;
57891;SDS011;43708;48.828;9.166;2023-03-14T09:21:41;16.05;;;14.65;;
57891;SDS011;43708;48.828;9.166;2023-03-14T09:24:07;15.48;;;13.98;;
57891;SDS011;43708;48.828;9.166;2023-03-14T09:26:32;15.50;;;14.00;;
57891;SDS011;43708;48.828;9.166;2023-03-14T09:28:58;13.48;;;12.27;;
57891;SDS011;43708;48.828;9.166;2023-03-14T09:31:23;12.90;;;11.70;;
57891;SDS011;43708;48.828;9.166;2023-03-14T09:33:49;11.50;;;10.50;;
57891;SDS011;43708;48.828;9.166;2023-03-14T09:36:15;12.10;;;11.00;;
57891;SDS011;43708;48.828;9.166;2023-03-14T09:38:40;10.65;;;9.63;;
57891;SDS011;43708;48.828;9.166;2023-03-14T09:41:14;11.77;;;10.68;;
57891;SDS011;43708;48.828;9.166;2023-03-14T09:43:53;13.25;;;12.02;;
57891;SDS011;43708;48.828;9.166;2023-03-14T09:46:29;11.57;;;10.48;;
57891;SDS011;43708;48.828;9.166;2023-03-14T09:48:56;12.70;;;11.50;;
57891;SDS011;43708;48.828;9.166;2023-03-14T09:51:21;9.65;;;8.75;;
57891;SDS011;43708;48.828;9.166;2023-03-14T09:53:48;10.23;;;9.30;;
57891;SDS011;43708;48.828;9.166;2023-03-14T09:56:18;10.40;;;9.45;;
57891;SDS011;43708;48.828;9.166;2023-03-14T09:58:54;9.32;;;8.52;;
57891;SDS011;43708;48.828;9.166;2023-03-14T10:01:24;9.60;;;8.80;;
57891;SDS011;43708;48.828;9.166;2023-03-14T10:03:53;9.77;;;8.88;;
57891;SDS011;43708;48.828;9.166;2023-03-14T10:06:20;9.65;;;8.75;;
57891;SDS011;43708;48.828;9.166;2023-03-14T10:08:50;10.25;;;9.23;;
57891;SDS011;43708;48.828;9.166;2023-03-14T10:11:17;8.60;;;7.80;;
57891;SDS011;43708;48.828;9.166;2023-03-14T10:13:50;8.43;;;7.70;;
57891;SDS011;43708;48.828;9.166;2023-03-14T10:16:30;8.57;;;7.78;;
57891;SDS011;43708;48.828;9.166;2023-03-14T10:19:02;8.38;;;7.63;;
57891;SDS011;43708;48.828;9.166;2023-03-14T10:21:30;9.05;;;8.25;;
57891;SDS011;43708;48.828;9.166;2023-03-14T10:24:10;8.20;;;7.40;;
57891;SDS011;43708;48.828;9.166;2023-03-14T10:26:54;7.88;;;7.28;;
57891;SDS011;43708;48.828;9.166;2023-03-14T10:29:26;7.25;;;6.50;;
57891;SDS011;43708;48.828;9.166;2023-03-14T10:32:00;5.65;;;5.15;;
57891;SDS011;43708;48.828;9.166;2023-03-14T10:34:33;7.20;;;6.50;;
57891;SDS011;43708;48.828;9.166;2023-03-14T10:37:33;6.88;;;6.28;;
57891;SDS011;43708;48.828;9.166;2023-03-14T10:39:53;8.02;;;7.32;;
57891;SDS011;43708;48.828;9.166;2023-03-14T10:42:29;6.63;;;6.03;;
57891;SDS011;43708;48.828;9.166;2023-03-14T10:45:04;6.50;;;5.90;;
57891;SDS011;43708;48.828;9.166;2023-03-14T10:47:34;6.40;;;5.82;;
57891;SDS011;43708;48.828;9.166;2023-03-14T10:50:22;6.70;;;6.10;;
57891;SDS011;43708;48.828;9.166;2023-03-14T10:52:51;6.68;;;6.07;;
57891;SDS011;43708;48.828;9.166;2023-03-14T10:55:18;6.15;;;5.65;;
57891;SDS011;43708;48.828;9.166;2023-03-14T10:57:43;6.07;;;5.57;;
57891;SDS011;43708;48.828;9.166;2023-03-14T11:00:14;6.72;;;6.13;;
57891;SDS011;43708;48.828;9.166;2023-03-14T11:02:51;7.03;;;6.43;;
57891;SDS011;43708;48.828;9.166;2023-03-14T11:08:01;4.50;;;4.10;;
57891;SDS011;43708;48.828;9.166;2023-03-14T11:10:33;4.93;;;4.53;;
57891;SDS011;43708;48.828;9.166;2023-03-14T11:15:37;5.78;;;5.28;;
57891;SDS011;43708;48.828;9.166;2023-03-14T11:28:52;4.57;;;4.20;;
57891;SDS011;43708;48.828;9.166;2023-03-14T11:31:36;4.30;;;3.90;;
57891;SDS011;43708;48.828;9.166;2023-03-14T11:37:17;4.07;;;3.78;;
57891;SDS011;43708;48.828;9.166;2023-03-14T11:42:43;3.63;;;3.30;;
57891;SDS011;43708;48.828;9.166;2023-03-14T11:45:17;3.85;;;3.55;;
57891;SDS011;43708;48.828;9.166;2023-03-14T11:47:53;3.90;;;3.47;;
57891;SDS011;43708;48.828;9.166;2023-03-14T11:50:35;3.40;;;3.10;;
57891;SDS011;43708;48.828;9.166;2023-03-14T11:55:32;3.97;;;3.67;;
57891;SDS011;43708;48.828;9.166;2023-03-14T11:58:01;4.00;;;3.70;;
57891;SDS011;43708;48.828;9.166;2023-03-14T12:00:34;4.30;;;3.90;;
57891;SDS011;43708;48.828;9.166;2023-03-14T12:03:09;4.22;;;3.83;;
57891;SDS011;43708;48.828;9.166;2023-03-14T12:05:46;3.85;;;3.53;;
57891;SDS011;43708;48.828;9.166;2023-03-14T12:10:46;3.83;;;3.53;;
57891;SDS011;43708;48.828;9.166;2023-03-14T12:13:16;3.22;;;2.95;;
57891;SDS011;43708;48.828;9.166;2023-03-14T12:15:56;7.35;;;6.47;;
57891;SDS011;43708;48.828;9.166;2023-03-14T12:18:26;5.90;;;5.07;;
57891;SDS011;43708;48.828;9.166;2023-03-14T12:20:58;7.78;;;6.55;;
57891;SDS011;43708;48.828;9.166;2023-03-14T12:23:28;11.77;;;10.18;;
57891;SDS011;43708;48.828;9.166;2023-03-14T12:28:37;8.60;;;7.65;;
57891;SDS011;43708;48.828;9.166;2023-03-14T12:34:24;9.27;;;7.72;;
57891;SDS011;43708;48.828;9.166;2023-03-14T12:36:55;10.18;;;7.60;;
57891;SDS011;43708;48.828;9.166;2023-03-14T12:45:02;8.93;;;7.47;;
57891;SDS011;43708;48.828;9.166;2023-03-14T12:50:11;8.57;;;7.03;;
57891;SDS011;43708;48.828;9.166;2023-03-14T12:55:21;7.85;;;7.05;;
57891;SDS011;43708;48.828;9.166;2023-03-14T13:00:57;7.85;;;6.50;;
57891;SDS011;43708;48.828;9.166;2023-03-14T13:03:26;8.50;;;7.03;;
57891;SDS011;43708;48.828;9.166;2023-03-14T13:06:09;7.75;;;6.68;;
57891;SDS011;43708;48.828;9.166;2023-03-14T13:11:12;8.93;;;7.00;;
57891;SDS011;43708;48.828;9.166;2023-03-14T13:13:49;8.07;;;6.25;;
57891;SDS011;43708;48.828;9.166;2023-03-14T13:16:21;9.32;;;8.10;;
57891;SDS011;43708;48.828;9.166;2023-03-14T13:18:48;7.50;;;6.30;;
57891;SDS011;43708;48.828;9.166;2023-03-14T13:24:45;7.05;;;5.72;;
57891;SDS011;43708;48.828;9.166;2023-03-14T13:26:45;7.82;;;6.00;;
57891;SDS011;43708;48.828;9.166;2023-03-14T13:31:46;8.30;;;6.82;;
57891;SDS011;43708;48.828;9.166;2023-03-14T13:34:13;7.47;;;6.07;;
57891;SDS011;43708;48.828;9.166;2023-03-14T13:36:38;7.53;;;6.57;;
57891;SDS011;43708;48.828;9.166;2023-03-14T13:39:06;6.78;;;5.93;;
57891;SDS011;43708;48.828;9.166;2023-03-14T13:41:37;6.80;;;5.97;;
57891;SDS011;43708;48.828;9.166;2023-03-14T13:44:05;7.40;;;6.18;;
57891;SDS011;43708;48.828;9.166;2023-03-14T13:46:34;7.03;;;5.55;;
57891;SDS011;43708;48.828;9.166;2023-03-14T13:49:02;7.43;;;6.25;;
57891;SDS011;43708;48.828;9.166;2023-03-14T13:51:30;6.63;;;5.90;;
57891;SDS011;43708;48.828;9.166;2023-03-14T13:54:00;6.72;;;5.75;;
57891;SDS011;43708;48.828;9.166;2023-03-14T13:56:28;6.25;;;5.60;;
57891;SDS011;43708;48.828;9.166;2023-03-14T13:58:56;7.30;;;5.95;;
57891;SDS011;43708;48.828;9.166;2023-03-14T14:01:26;7.20;;;5.88;;
57891;SDS011;43708;48.828;9.166;2023-03-14T14:03:56;6.45;;;5.68;;
57891;SDS011;43708;48.828;9.166;2023-03-14T14:06:27;5.28;;;4.78;;
57891;SDS011;43708;48.828;9.166;2023-03-14T14:08:59;6.72;;;6.00;;
57891;SDS011;43708;48.828;9.166;2023-03-14T14:14:36;6.30;;;5.00;;
57891;SDS011;43708;48.828;9.166;2023-03-14T14:17:06;6.43;;;5.40;;
57891;SDS011;43708;48.828;9.166;2023-03-14T14:19:35;6.43;;;5.20;;
57891;SDS011;43708;48.828;9.166;2023-03-14T14:22:02;6.47;;;5.28;;
57891;SDS011;43708;48.828;9.166;2023-03-14T14:24:30;5.88;;;5.22;;
57891;SDS011;43708;48.828;9.166;2023-03-14T14:27:01;5.75;;;5.15;;
57891;SDS011;43708;48.828;9.166;2023-03-14T14:29:35;6.38;;;5.40;;
57891;SDS011;43708;48.828;9.166;2023-03-14T14:32:01;6.05;;;4.97;;
57891;SDS011;43708;48.828;9.166;2023-03-14T14:34:48;7.20;;;6.07;;
57891;SDS011;43708;48.828;9.166;2023-03-14T14:37:33;8.45;;;7.20;;
57891;SDS011;43708;48.828;9.166;2023-03-14T14:40:05;6.72;;;6.03;;
57891;SDS011;43708;48.828;9.166;2023-03-14T14:42:51;9.35;;;7.25;;
57891;SDS011;43708;48.828;9.166;2023-03-14T14:45:18;8.60;;;6.55;;
57891;SDS011;43708;48.828;9.166;2023-03-14T14:47:55;7.47;;;6.18;;
57891;SDS011;43708;48.828;9.166;2023-03-14T14:50:28;7.68;;;6.88;;
57891;SDS011;43708;48.828;9.166;2023-03-14T14:52:56;6.60;;;5.68;;
57891;SDS011;43708;48.828;9.166;2023-03-14T14:55:33;8.77;;;6.43;;
57891;SDS011;43708;48.828;9.166;2023-03-14T15:00:51;7.18;;;6.25;;
57891;SDS011;43708;48.828;9.166;2023-03-14T15:03:20;8.63;;;6.60;;
57891;SDS011;43708;48.828;9.166;2023-03-14T15:05:45;6.63;;;5.68;;
57891;SDS011;43708;48.828;9.166;2023-03-14T15:08:11;6.93;;;5.15;;
57891;SDS011;43708;48.828;9.166;2023-03-14T15:10:37;7.30;;;4.80;;
57891;SDS011;43708;48.828;9.166;2023-03-14T15:13:03;5.30;;;4.22;;
57891;SDS011;43708;48.828;9.166;2023-03-14T15:15:28;5.45;;;4.45;;
57891;SDS011;43708;48.828;9.166;2023-03-14T15:17:54;5.20;;;4.28;;
57891;SDS011;43708;48.828;9.166;2023-03-14T15:20:20;5.93;;;4.70;;
57891;SDS011;43708;48.828;9.166;2023-03-14T15:22:48;6.57;;;5.35;;
57891;SDS011;43708;48.828;9.166;2023-03-14T15:25:14;8.13;;;5.45;;
57891;SDS011;43708;48.828;9.166;2023-03-14T15:27:40;11.05;;;7.47;;
57891;SDS011;43708;48.828;9.166;2023-03-14T15:30:11;7.60;;;5.47;;
57891;SDS011;43708;48.828;9.166;2023-03-14T15:32:37;7.60;;;6.45;;
57891;SDS011;43708;48.828;9.166;2023-03-14T15:35:03;8.77;;;7.18;;
57891;SDS011;43708;48.828;9.166;2023-03-14T15:37:29;7.68;;;6.55;;
57891;SDS011;43708;48.828;9.166;2023-03-14T15:39:55;9.10;;;7.25;;
57891;SDS011;43708;48.828;9.166;2023-03-14T15:42:22;7.45;;;6.43;;
57891;SDS011;43708;48.828;9.166;2023-03-14T15:44:48;7.57;;;6.63;;
57891;SDS011;43708;48.828;9.166;2023-03-14T15:47:14;6.80;;;5.68;;
57891;SDS011;43708;48.828;9.166;2023-03-14T15:49:39;5.85;;;4.95;;
57891;SDS011;43708;48.828;9.166;2023-03-14T15:52:05;6.53;;;5.80;;
57891;SDS011;43708;48.828;9.166;2023-03-14T15:54:32;9.05;;;5.75;;
57891;SDS011;43708;48.828;9.166;2023-03-14T15:56:58;6.40;;;4.95;;
57891;SDS011;43708;48.828;9.166;2023-03-14T15:59:24;6.00;;;5.00;;
57891;SDS011;43708;48.828;9.166;2023-03-14T16:01:50;5.50;;;4.93;;